Time;durP1;ratioP1;P1;durP2;ratioP2;P2;SDS_P1;SDS_P2;PMS_P1;PMS_P2;Temp;Humidity;BMP_temperature;BMP_pressure;BME280_temperature;BME280_humidity;BME280_pressure;Samples;Min_cycle;Max_cycle;Signal;HPM_P1;HPM_P2
2023/02/03 00:02:22;;;;;;;0.80;0.22;;;;;;;;;;5129839;27;20233;-66
2023/02/03 00:04:49;;;;;;;0.30;0.20;;;;;;;;;;5129094;27;20202;-67
2023/02/03 00:07:17;;;;;;;0.30;0.30;;;5.00;99.90;;;;;;5128858;27;20229;-67
2023/02/03 00:09:44;;;;;;;1.52;0.47;;;4.80;99.90;;;;;;5129948;27;20224;-67
2023/02/03 00:12:11;;;;;;;1.15;0.60;;;5.40;99.90;;;;;;5129395;27;20225;-67
2023/02/03 00:14:38;;;;;;;0.30;0.20;;;;;;;;;;5129733;27;20211;-67
2023/02/03 00:17:05;;;;;;;0.30;0.20;;;;;;;;;;5129364;27;20586;-67
2023/02/03 00:19:32;;;;;;;0.40;0.40;;;;;;;;;;5128844;27;20189;-68
2023/02/03 00:21:59;;;;;;;0.68;0.45;;;4.90;99.90;;;;;;5128759;27;20956;-67
2023/02/03 00:24:28;;;;;;;0.30;0.30;;;4.90;99.90;;;;;;5109471;28;20218;-66
2023/02/03 00:26:55;;;;;;;0.30;0.20;;;4.80;99.90;;;;;;5126257;27;20224;-67
2023/02/03 00:29:24;;;;;;;0.30;0.20;;;;;;;;;;5129109;27;20679;-67
2023/02/03 00:31:52;;;;;;;0.30;0.30;;;4.90;99.90;;;;;;5128626;27;20228;-67
2023/02/03 00:34:19;;;;;;;0.30;0.20;;;5.70;99.90;;;;;;5128554;27;20186;-67
2023/02/03 00:36:47;;;;;;;0.55;0.50;;;;;;;;;;5128229;27;20225;-66
2023/02/03 00:39:14;;;;;;;0.30;0.30;;;;;;;;;;5113607;27;20941;-69
2023/02/03 00:41:42;;;;;;;0.40;0.30;;;4.90;99.90;;;;;;5123308;27;20209;-66
2023/02/03 00:44:09;;;;;;;0.40;0.30;;;4.80;99.90;;;;;;5108388;28;20209;-68
2023/02/03 00:46:36;;;;;;;0.35;0.25;;;;;;;;;;5126114;27;20221;-68
2023/02/03 00:49:03;;;;;;;0.30;0.20;;;5.00;99.90;;;;;;5128212;27;20190;-66
2023/02/03 00:51:30;;;;;;;0.30;0.25;;;5.10;99.90;;;;;;5129530;27;20217;-67
2023/02/03 00:53:58;;;;;;;0.55;0.55;;;;;;;;;;5116664;27;20189;-67
2023/02/03 00:56:25;;;;;;;0.30;0.20;;;;;;;;;;5118104;27;20213;-66
2023/02/03 00:58:53;;;;;;;0.40;0.40;;;4.90;99.90;;;;;;5114289;27;20193;-67
2023/02/03 01:01:20;;;;;;;0.40;0.40;;;4.90;99.90;;;;;;5115607;27;20228;-68
2023/02/03 01:03:47;;;;;;;0.30;0.20;;;;;;;;;;5116922;27;20198;-67
2023/02/03 01:06:15;;;;;;;0.57;0.40;;;5.00;99.90;;;;;;5115155;27;20213;-67
2023/02/03 01:08:43;;;;;;;0.30;0.20;;;4.90;99.90;;;;;;5115842;27;20194;-67
2023/02/03 01:11:12;;;;;;;0.35;0.30;;;5.00;99.90;;;;;;5108088;28;20234;-67
2023/02/03 01:13:39;;;;;;;0.30;0.30;;;;;;;;;;5108333;28;20237;-67
2023/02/03 01:16:09;;;;;;;0.30;0.20;;;4.80;99.90;;;;;;5108677;27;20232;-68
2023/02/03 01:18:36;;;;;;;0.30;0.20;;;4.90;99.90;;;;;;5119355;27;20200;-67
2023/02/03 01:21:07;;;;;;;0.30;0.30;;;4.70;99.90;;;;;;5127206;27;20227;-67
2023/02/03 01:23:34;;;;;;;0.30;0.30;;;4.90;99.90;;;;;;5127973;27;20200;-67
2023/02/03 01:26:05;;;;;;;0.35;0.28;;;4.90;99.90;;;;;;5127901;27;20741;-68
2023/02/03 01:28:32;;;;;;;0.30;0.20;;;7.70;99.90;;;;;;5127852;27;20678;-67
2023/02/03 01:31:11;;;;;;;0.30;0.22;;;5.10;99.90;;;;;;5128484;27;20240;-67
2023/02/03 01:33:39;;;;;;;0.30;0.20;;;;;;;;;;5128399;27;20204;-67
2023/02/03 01:36:07;;;;;;;0.30;0.20;;;5.10;99.90;;;;;;5128565;27;20281;-69
2023/02/03 01:38:34;;;;;;;0.60;0.38;;;;;;;;;;5112145;28;20285;-67
2023/02/03 01:41:01;;;;;;;0.73;0.63;;;5.20;99.90;;;;;;5122369;28;20308;-68
2023/02/03 01:43:30;;;;;;;0.40;0.25;;;5.00;99.90;;;;;;5107971;28;20198;-67
2023/02/03 01:45:57;;;;;;;0.40;0.30;;;5.90;99.90;;;;;;5107837;28;20230;-67
2023/02/03 01:48:25;;;;;;;0.50;0.45;;;4.90;99.90;;;;;;5107628;28;20202;-67
2023/02/03 01:50:52;;;;;;;0.40;0.40;;;4.80;99.90;;;;;;5108127;28;20679;-67
2023/02/03 01:53:19;;;;;;;0.40;0.35;;;;;;;;;;5127372;28;20240;-68
2023/02/03 01:55:49;;;;;;;0.40;0.40;;;5.00;99.90;;;;;;5116056;28;20712;-67
2023/02/03 01:58:20;;;;;;;0.32;0.32;;;4.90;99.90;;;;;;5115147;28;20186;-67
2023/02/03 02:00:49;;;;;;;0.30;0.20;;;4.00;99.90;;;;;;5107740;28;20583;-67
2023/02/03 02:03:18;;;;;;;0.30;0.30;;;4.80;99.90;;;;;;5107953;28;20202;-67
2023/02/03 02:05:50;;;;;;;0.30;0.20;;;5.00;99.90;;;;;;5109784;28;20216;-68
2023/02/03 02:08:18;;;;;;;0.30;0.20;;;5.00;99.90;;;;;;5119593;28;20259;-67
2023/02/03 02:10:46;;;;;;;0.30;0.25;;;;;;;;;;5110235;28;20235;-67
2023/02/03 02:13:14;;;;;;;0.85;0.30;;;4.90;99.90;;;;;;5127071;27;20203;-67
2023/02/03 02:15:51;;;;;;;0.30;0.20;;;5.00;99.90;;;;;;5123225;27;20312;-67
2023/02/03 02:18:40;;;;;;;0.30;0.30;;;5.00;99.90;;;;;;5131510;27;20224;-68
2023/02/03 02:21:48;;;;;;;0.55;0.55;;;4.90;99.90;;;;;;5131589;27;20311;-68
2023/02/03 02:25:04;;;;;;;0.40;0.30;;;5.00;99.90;;;;;;5047827;28;20286;-67
2023/02/03 02:28:18;;;;;;;0.30;0.20;;;5.00;99.90;;;;;;5087155;27;20233;-67
2023/02/03 02:31:06;;;;;;;0.40;0.40;;;5.00;99.90;;;;;;5131328;27;20242;-68
2023/02/03 02:33:42;;;;;;;0.60;0.60;;;5.00;99.90;;;;;;5111325;28;20337;-67
2023/02/03 02:36:22;;;;;;;0.30;0.20;;;5.00;99.90;;;;;;5124305;27;20217;-68
2023/02/03 02:38:57;;;;;;;0.30;0.20;;;4.90;99.90;;;;;;5111424;27;20907;-67
2023/02/03 02:41:31;;;;;;;0.30;0.20;;;5.10;99.90;;;;;;5117337;27;20586;-67
2023/02/03 02:44:07;;;;;;;0.30;0.25;;;5.00;99.90;;;;;;5131760;27;20262;-67
2023/02/03 02:46:38;;;;;;;0.40;0.40;;;5.10;99.90;;;;;;5114117;27;20715;-67
2023/02/03 02:49:13;;;;;;;0.63;0.35;;;5.10;99.90;;;;;;5125366;27;20274;-67
2023/02/03 02:51:44;;;;;;;0.63;0.40;;;4.90;99.90;;;;;;5130955;27;20698;-68
2023/02/03 02:54:16;;;;;;;0.30;0.30;;;5.00;99.90;;;;;;5131547;27;20216;-67
2023/02/03 02:56:48;;;;;;;0.30;0.30;;;5.00;99.90;;;;;;5129354;27;20232;-67
2023/02/03 02:59:16;;;;;;;0.30;0.20;;;;;;;;;;5110425;28;20221;-67
2023/02/03 03:01:43;;;;;;;0.40;0.20;;;5.10;99.90;;;;;;5115651;27;20744;-67
2023/02/03 03:04:14;;;;;;;0.30;0.30;;;5.10;99.90;;;;;;5131072;27;20197;-67
2023/02/03 03:06:46;;;;;;;1.38;0.35;;;5.10;99.90;;;;;;5118100;27;20274;-67
2023/02/03 03:09:16;;;;;;;0.52;0.30;;;5.20;99.90;;;;;;5110439;27;20185;-67
2023/02/03 03:11:48;;;;;;;0.60;0.57;;;4.90;99.90;;;;;;5110773;28;20226;-67
2023/02/03 03:14:18;;;;;;;0.30;0.20;;;5.10;99.90;;;;;;5110376;27;20194;-67
2023/02/03 03:16:53;;;;;;;0.30;0.30;;;5.20;99.90;;;;;;5123980;27;20266;-67
2023/02/03 03:19:25;;;;;;;0.45;0.35;;;5.10;99.90;;;;;;5110708;28;20249;-67
2023/02/03 03:21:54;;;;;;;0.40;0.20;;;5.00;99.90;;;;;;5109375;27;20246;-67
2023/02/03 03:24:27;;;;;;;0.30;0.20;;;5.10;99.90;;;;;;5110505;28;20759;-67
2023/02/03 03:27:01;;;;;;;0.50;0.50;;;4.90;99.90;;;;;;5116932;27;20225;-67
2023/02/03 03:29:35;;;;;;;0.30;0.20;;;5.20;99.90;;;;;;5119610;27;20613;-67
2023/02/03 03:32:03;;;;;;;0.40;0.40;;;5.20;99.90;;;;;;5109893;28;20230;-67
2023/02/03 03:34:33;;;;;;;0.45;0.43;;;5.10;99.90;;;;;;5112715;27;20293;-67
2023/02/03 03:37:05;;;;;;;0.30;0.30;;;5.00;99.90;;;;;;5127146;27;20217;-67
2023/02/03 03:39:42;;;;;;;0.30;0.20;;;5.10;99.90;;;;;;5118021;27;20202;-68
2023/02/03 03:42:14;;;;;;;0.40;0.40;;;5.10;99.90;;;;;;5129940;27;20762;-68
2023/02/03 03:44:48;;;;;;;0.73;0.40;;;5.30;99.90;;;;;;5130728;27;20201;-67
2023/02/03 03:47:23;;;;;;;0.68;0.30;;;5.00;99.90;;;;;;5130211;27;20255;-67
2023/02/03 03:49:54;;;;;;;0.85;0.28;;;5.10;99.90;;;;;;5123611;27;20200;-67
2023/02/03 03:52:24;;;;;;;0.50;0.38;;;5.00;99.90;;;;;;5130041;27;20224;-67
2023/02/03 03:54:55;;;;;;;0.40;0.30;;;5.20;99.90;;;;;;5130487;27;20211;-67
2023/02/03 03:57:27;;;;;;;0.47;0.43;;;5.70;99.90;;;;;;5129709;27;20350;-67
2023/02/03 03:59:55;;;;;;;0.40;0.30;;;5.10;99.90;;;;;;5129420;27;20201;-67
2023/02/03 04:02:23;;;;;;;1.33;0.88;;;5.30;99.90;;;;;;5129431;27;20221;-67
2023/02/03 04:04:54;;;;;;;0.40;0.40;;;5.30;99.90;;;;;;5129883;27;20979;-67
2023/02/03 04:07:21;;;;;;;0.40;0.30;;;4.70;99.90;;;;;;5129602;27;20608;-67
2023/02/03 04:09:48;;;;;;;0.30;0.30;;;;;;;;;;5130052;27;20313;-67
2023/02/03 04:12:22;;;;;;;0.40;0.30;;;5.10;99.90;;;;;;5129499;27;20240;-68
2023/02/03 04:14:49;;;;;;;0.30;0.20;;;;;;;;;;5129966;27;20197;-67
2023/02/03 04:17:18;;;;;;;0.30;0.30;;;5.10;99.90;;;;;;5128510;27;20224;-67
2023/02/03 04:19:46;;;;;;;1.20;0.40;;;5.30;99.90;;;;;;5129389;27;20193;-68
2023/02/03 04:22:14;;;;;;;1.45;0.85;;;5.10;99.90;;;;;;5129227;27;20217;-67
2023/02/03 04:24:41;;;;;;;0.38;0.35;;;;;;;;;;5129905;27;20204;-67
2023/02/03 04:27:08;;;;;;;1.05;0.95;;;4.90;99.90;;;;;;5129532;27;20297;-67
2023/02/03 04:29:34;;;;;;;0.30;0.20;;;5.90;99.90;;;;;;5128414;27;20201;-68
2023/02/03 04:32:01;;;;;;;0.30;0.20;;;4.90;99.90;;;;;;5128480;27;20260;-67
2023/02/03 04:34:28;;;;;;;0.30;0.20;;;5.00;99.90;;;;;;5128319;27;20221;-68
2023/02/03 04:36:55;;;;;;;0.30;0.20;;;5.10;99.90;;;;;;5127010;27;20225;-67
2023/02/03 04:39:23;;;;;;;0.30;0.20;;;5.00;99.90;;;;;;5122289;27;20200;-68
2023/02/03 04:41:50;;;;;;;0.30;0.20;;;4.90;99.90;;;;;;5123709;27;20223;-68
2023/02/03 04:44:17;;;;;;;0.30;0.25;;;;;;;;;;5128981;27;20270;-67
2023/02/03 04:46:44;;;;;;;0.68;0.25;;;;;;;;;;5129188;27;20228;-67
2023/02/03 04:49:11;;;;;;;0.30;0.20;;;;;;;;;;5128447;27;20193;-67
2023/02/03 04:51:38;;;;;;;0.82;0.20;;;5.00;99.90;;;;;;5129146;27;20232;-68
2023/02/03 04:54:05;;;;;;;0.30;0.22;;;4.80;99.90;;;;;;5129291;27;20199;-67
2023/02/03 04:56:33;;;;;;;0.30;0.28;;;5.00;99.90;;;;;;5128740;27;20213;-68
2023/02/03 04:59:00;;;;;;;0.40;0.30;;;4.80;99.90;;;;;;5128252;27;20190;-67
2023/02/03 05:01:26;;;;;;;2.10;0.65;;;5.70;99.90;;;;;;5128807;27;20287;-67
2023/02/03 05:03:53;;;;;;;0.30;0.20;;;;;;;;;;5128934;27;20201;-68
2023/02/03 05:06:24;;;;;;;0.40;0.22;;;5.00;99.90;;;;;;5128682;27;20296;-67
2023/02/03 05:08:51;;;;;;;0.30;0.20;;;4.60;99.90;;;;;;5128723;27;20201;-67
2023/02/03 05:11:18;;;;;;;0.30;0.20;;;;;;;;;;5127608;27;20225;-69
2023/02/03 05:13:46;;;;;;;0.40;0.30;;;5.00;99.90;;;;;;5129174;27;20201;-67
2023/02/03 05:16:13;;;;;;;0.43;0.43;;;;;;;;;;5128222;27;20221;-68
2023/02/03 05:18:40;;;;;;;0.52;0.30;;;5.00;99.90;;;;;;5128335;27;20197;-67
2023/02/03 05:21:07;;;;;;;0.30;0.20;;;5.60;99.90;;;;;;5128318;27;20213;-68
2023/02/03 05:23:34;;;;;;;0.40;0.40;;;4.70;99.90;;;;;;5128356;27;20245;-67
2023/02/03 05:26:01;;;;;;;0.60;0.30;;;4.80;99.90;;;;;;5127995;27;20305;-67
2023/02/03 05:28:27;;;;;;;0.55;0.38;;;4.60;99.90;;;;;;5128596;27;20215;-67
2023/02/03 05:30:58;;;;;;;0.40;0.22;;;4.70;99.90;;;;;;5127805;27;20221;-68
2023/02/03 05:33:25;;;;;;;0.30;0.20;;;;;;;;;;5127777;27;20193;-67
2023/02/03 05:35:52;;;;;;;0.30;0.20;;;;;;;;;;5128266;27;20575;-67
2023/02/03 05:38:19;;;;;;;0.93;0.90;;;4.80;99.90;;;;;;5127070;28;20200;-68
2023/02/03 05:43:32;;;;;;;1.20;0.63;;;;;;;;;;5107767;28;20210;-67
2023/02/03 05:46:02;;;;;;;0.47;0.30;;;4.80;99.90;;;;;;5116377;27;20317;-68
2023/02/03 05:48:29;;;;;;;1.88;0.70;;;;;;;;;;5123915;27;20233;-68
2023/02/03 05:50:56;;;;;;;0.85;0.80;;;4.40;99.90;;;;;;5118116;27;20232;-67
2023/02/03 05:53:23;;;;;;;0.63;0.63;;;;;;;;;;5125530;27;21298;-67
2023/02/03 05:55:50;;;;;;;0.40;0.30;;;6.00;99.90;;;;;;5131673;27;21117;-66
2023/02/03 05:58:17;;;;;;;0.30;0.30;;;;;;;;;;5131003;27;20202;-67
2023/02/03 06:00:44;;;;;;;0.30;0.20;;;5.00;99.90;;;;;;5131310;27;20224;-66
2023/02/03 06:03:12;;;;;;;0.50;0.30;;;4.80;99.90;;;;;;5131353;27;20201;-66
2023/02/03 06:05:40;;;;;;;0.30;0.20;;;;;;;;;;5131417;27;20714;-66
2023/02/03 06:08:07;;;;;;;0.52;0.52;;;4.80;99.90;;;;;;5130876;27;20228;-67
2023/02/03 06:10:34;;;;;;;0.45;0.43;;;5.40;99.90;;;;;;5109762;27;20296;-66
2023/02/03 06:13:09;;;;;;;0.85;0.85;;;4.90;99.90;;;;;;5116697;27;20209;-65
2023/02/03 06:15:36;;;;;;;0.80;0.40;;;4.70;99.90;;;;;;5111856;27;20228;-66
2023/02/03 06:18:03;;;;;;;1.10;1.10;;;4.70;99.90;;;;;;5109292;27;20244;-67
2023/02/03 06:20:31;;;;;;;0.30;0.30;;;4.90;99.90;;;;;;5111199;27;20225;-66
2023/02/03 06:22:58;;;;;;;0.30;0.25;;;;;;;;;;5110961;28;20206;-66
2023/02/03 06:25:26;;;;;;;0.30;0.20;;;;;;;;;;5110424;28;20234;-66
2023/02/03 06:27:52;;;;;;;0.30;0.20;;;4.50;99.90;;;;;;5112164;27;20201;-68
2023/02/03 06:30:22;;;;;;;0.40;0.40;;;5.00;99.90;;;;;;5130798;27;20189;-67
2023/02/03 06:32:49;;;;;;;1.30;0.50;;;5.00;99.90;;;;;;5130573;27;20235;-67
2023/02/03 06:35:16;;;;;;;0.47;0.47;;;4.90;99.90;;;;;;5130276;27;20288;-66
2023/02/03 06:37:44;;;;;;;0.32;0.32;;;4.00;99.90;;;;;;5108731;27;20237;-66
2023/02/03 06:40:12;;;;;;;0.30;0.30;;;4.90;99.90;;;;;;5124541;27;20663;-67
2023/02/03 06:42:39;;;;;;;0.30;0.30;;;4.80;99.90;;;;;;5115166;27;20668;-67
2023/02/03 06:45:07;;;;;;;1.40;0.60;;;4.70;99.90;;;;;;5129168;27;20271;-68
2023/02/03 06:47:34;;;;;;;0.30;0.30;;;4.80;99.90;;;;;;5125877;27;20202;-66
2023/02/03 06:50:01;;;;;;;0.30;0.20;;;4.90;99.90;;;;;;5117698;27;20195;-66
2023/02/03 06:52:28;;;;;;;0.30;0.30;;;4.90;99.90;;;;;;5114492;27;20233;-66
2023/02/03 06:54:56;;;;;;;0.30;0.20;;;5.00;99.90;;;;;;5110279;28;20206;-66
2023/02/03 06:57:23;;;;;;;0.30;0.20;;;4.80;99.90;;;;;;5125814;27;20223;-67
2023/02/03 06:59:49;;;;;;;0.30;0.20;;;5.00;99.90;;;;;;5129406;27;20201;-66
2023/02/03 07:02:16;;;;;;;0.30;0.20;;;;;;;;;;5124610;27;20876;-66
2023/02/03 07:04:44;;;;;;;0.40;0.20;;;4.90;99.90;;;;;;5114507;27;20197;-66
2023/02/03 07:07:11;;;;;;;0.30;0.30;;;;;;;;;;5118347;27;20304;-66
2023/02/03 07:09:38;;;;;;;0.55;0.40;;;;;;;;;;5124281;27;20193;-67
2023/02/03 07:12:07;;;;;;;0.50;0.30;;;5.10;99.90;;;;;;5129408;27;20236;-67
2023/02/03 07:14:34;;;;;;;0.73;0.30;;;4.70;99.90;;;;;;5127195;27;20193;-66
2023/02/03 07:17:01;;;;;;;0.57;0.40;;;4.80;99.90;;;;;;5112686;27;20291;-66
2023/02/03 07:19:28;;;;;;;0.30;0.20;;;4.70;99.90;;;;;;5112358;27;20360;-66
2023/02/03 07:21:55;;;;;;;1.90;0.52;;;4.80;99.90;;;;;;5117997;27;20237;-66
2023/02/03 07:24:27;;;;;;;0.65;0.30;;;4.60;99.90;;;;;;5118917;27;20281;-67
2023/02/03 07:26:55;;;;;;;0.30;0.20;;;4.70;99.90;;;;;;5124220;27;20236;-68
2023/02/03 07:29:23;;;;;;;0.30;0.20;;;4.80;99.90;;;;;;5111725;27;20204;-68
2023/02/03 07:31:50;;;;;;;0.80;0.73;;;;;;;;;;5119285;27;20229;-67
2023/02/03 07:34:17;;;;;;;0.40;0.30;;;;;;;;;;5130078;27;20296;-66
2023/02/03 07:36:44;;;;;;;0.30;0.20;;;4.50;99.90;;;;;;5127023;27;20582;-66
2023/02/03 07:39:11;;;;;;;0.30;0.20;;;;;;;;;;5118880;27;20185;-66
2023/02/03 07:41:38;;;;;;;0.50;0.47;;;;;;;;;;5121209;27;20221;-67
2023/02/03 07:44:07;;;;;;;0.73;0.50;;;;;;;;;;5115810;27;20255;-66
2023/02/03 07:46:38;;;;;;;0.38;0.35;;;5.30;99.90;;;;;;5119849;27;20217;-68
2023/02/03 07:49:05;;;;;;;0.30;0.30;;;4.20;99.90;;;;;;5112519;27;20198;-66
2023/02/03 07:51:32;;;;;;;0.35;0.35;;;4.70;99.90;;;;;;5124706;27;20233;-67
2023/02/03 07:53:59;;;;;;;0.40;0.40;;;;;;;;;;5113468;27;20698;-66
2023/02/03 07:56:26;;;;;;;0.30;0.20;;;;;;;;;;5117096;27;20236;-66
2023/02/03 07:58:53;;;;;;;0.30;0.30;;;4.70;99.90;;;;;;5129119;27;20211;-66
2023/02/03 08:01:20;;;;;;;0.40;0.40;;;;;;;;;;5117608;27;20309;-66
2023/02/03 08:03:48;;;;;;;0.90;0.45;;;4.90;99.90;;;;;;5121232;27;20190;-67
2023/02/03 08:06:15;;;;;;;0.30;0.30;;;;;;;;;;5123564;27;20217;-66
2023/02/03 08:08:43;;;;;;;3.83;1.30;;;;;;;;;;5127244;27;20192;-66
2023/02/03 08:11:10;;;;;;;0.60;0.43;;;4.70;99.90;;;;;;5129138;27;20242;-66
2023/02/03 08:13:37;;;;;;;0.30;0.20;;;3.80;99.90;;;;;;5128373;27;20275;-66
2023/02/03 08:16:05;;;;;;;0.40;0.40;;;;;;;;;;5129019;27;20856;-66
2023/02/03 08:18:32;;;;;;;0.40;0.40;;;;;;;;;;5122553;27;20194;-66
2023/02/03 08:21:02;;;;;;;0.43;0.40;;;4.80;99.90;;;;;;5127592;27;20221;-67
2023/02/03 08:23:29;;;;;;;0.68;0.68;;;;;;;;;;5121202;27;20232;-66
2023/02/03 08:25:56;;;;;;;0.40;0.40;;;5.10;99.90;;;;;;5117270;27;20224;-66
2023/02/03 08:28:23;;;;;;;0.30;0.20;;;;;;;;;;5122849;27;20261;-68
2023/02/03 08:30:50;;;;;;;1.33;0.55;;;4.80;99.90;;;;;;5115461;27;20223;-66
2023/02/03 08:33:17;;;;;;;0.85;0.85;;;5.10;99.90;;;;;;5127920;27;20217;-68
2023/02/03 08:35:46;;;;;;;1.77;1.40;;;4.90;99.90;;;;;;5128635;27;20215;-66
2023/02/03 08:38:14;;;;;;;0.40;0.32;;;5.00;99.90;;;;;;5127535;27;20201;-66
2023/02/03 08:40:41;;;;;;;0.30;0.30;;;5.10;99.90;;;;;;5118034;27;20673;-66
2023/02/03 08:43:08;;;;;;;0.60;0.60;;;4.70;99.90;;;;;;5112592;27;20314;-67
2023/02/03 08:45:35;;;;;;;0.47;0.47;;;4.90;99.90;;;;;;5111490;27;20217;-66
2023/02/03 08:48:02;;;;;;;0.40;0.40;;;5.10;99.90;;;;;;5127732;27;20382;-67
2023/02/03 08:50:29;;;;;;;0.50;0.50;;;;;;;;;;5128394;27;20232;-66
2023/02/03 08:52:56;;;;;;;1.17;1.13;;;5.10;99.90;;;;;;5128150;27;20219;-67
2023/02/03 08:55:24;;;;;;;0.47;0.35;;;5.20;99.90;;;;;;5121573;27;20732;-67
2023/02/03 08:57:51;;;;;;;0.50;0.50;;;;;;;;;;5113868;27;20189;-66
2023/02/03 09:00:19;;;;;;;0.40;0.32;;;4.60;99.90;;;;;;5124383;27;20193;-66
2023/02/03 09:02:46;;;;;;;1.02;0.93;;;5.30;99.90;;;;;;5126878;27;20189;-67
2023/02/03 09:05:14;;;;;;;0.50;0.40;;;;;;;;;;5128156;27;20625;-66
2023/02/03 09:07:41;;;;;;;0.40;0.30;;;5.30;99.90;;;;;;5119855;27;20757;-68
2023/02/03 09:10:08;;;;;;;0.50;0.50;;;;;;;;;;5121317;27;20197;-67
2023/02/03 09:12:37;;;;;;;0.40;0.30;;;5.20;99.90;;;;;;5126861;27;20225;-66
2023/02/03 09:15:04;;;;;;;0.40;0.30;;;;;;;;;;5126138;27;20201;-67
2023/02/03 09:17:31;;;;;;;0.50;0.50;;;;;;;;;;5115415;27;20216;-66
2023/02/03 09:19:59;;;;;;;1.95;0.60;;;;;;;;;;5120839;27;20651;-66
2023/02/03 09:22:26;;;;;;;0.30;0.30;;;;;;;;;;5121655;27;20244;-66
2023/02/03 09:24:52;;;;;;;0.47;0.47;;;5.60;99.90;;;;;;5127469;27;20201;-66
2023/02/03 09:27:19;;;;;;;0.57;0.57;;;5.60;99.90;;;;;;5127791;27;20666;-67
2023/02/03 09:29:47;;;;;;;0.40;0.40;;;5.50;99.90;;;;;;5127388;27;20210;-69
2023/02/03 09:32:14;;;;;;;0.40;0.40;;;;;;;;;;5122813;27;20227;-66
2023/02/03 09:34:41;;;;;;;1.10;1.10;;;;;;;;;;5117704;27;20204;-66
2023/02/03 09:37:09;;;;;;;0.60;0.60;;;;;;;;;;5117155;27;20703;-68
2023/02/03 09:39:36;;;;;;;0.40;0.30;;;;;;;;;;5114127;27;20277;-66
2023/02/03 09:42:44;;;;;;;1.02;1.02;;;5.70;99.90;;;;;;5123196;27;20741;-68
2023/02/03 09:45:21;;;;;;;0.30;0.20;;;5.70;99.90;;;;;;5093913;28;20627;-66
2023/02/03 09:47:52;;;;;;;0.50;0.40;;;6.10;99.90;;;;;;5107145;28;20709;-67
2023/02/03 09:50:22;;;;;;;0.40;0.30;;;5.80;99.90;;;;;;5106912;28;20298;-67
2023/02/03 09:52:50;;;;;;;0.40;0.40;;;5.80;99.90;;;;;;5116648;28;20404;-66
2023/02/03 09:55:27;;;;;;;0.40;0.35;;;5.90;99.90;;;;;;5123550;28;20220;-67
2023/02/03 09:58:01;;;;;;;0.60;0.57;;;5.90;99.90;;;;;;5110877;28;20525;-68
2023/02/03 10:00:34;;;;;;;0.30;0.20;;;5.70;99.90;;;;;;5109982;28;20235;-68
2023/02/03 10:03:07;;;;;;;0.30;0.20;;;6.00;99.90;;;;;;5118956;28;20362;-68
2023/02/03 10:05:57;;;;;;;0.30;0.22;;;6.00;99.90;;;;;;5123115;28;20220;-67
2023/02/03 10:08:36;;;;;;;0.60;0.60;;;5.90;99.90;;;;;;5124032;28;20296;-68
2023/02/03 10:11:14;;;;;;;0.50;0.30;;;6.50;99.90;;;;;;5118771;28;20233;-68
2023/02/03 10:13:53;;;;;;;0.40;0.40;;;6.10;99.90;;;;;;5120034;28;20223;-68
2023/02/03 10:16:39;;;;;;;0.30;0.30;;;6.30;99.90;;;;;;5122818;28;20709;-69
2023/02/03 10:19:12;;;;;;;0.30;0.25;;;6.30;99.90;;;;;;5108423;28;20281;-66
2023/02/03 10:21:43;;;;;;;0.30;0.20;;;6.30;99.90;;;;;;5111676;28;20557;-68
2023/02/03 10:24:15;;;;;;;0.30;0.30;;;6.40;99.90;;;;;;5122925;28;20227;-67
2023/02/03 10:26:42;;;;;;;1.13;0.52;;;6.50;99.90;;;;;;5127071;28;20241;-66
2023/02/03 10:29:19;;;;;;;0.40;0.40;;;6.20;99.90;;;;;;5125742;28;20639;-67
2023/02/03 10:31:48;;;;;;;0.40;0.30;;;6.40;99.90;;;;;;5128906;27;20336;-67
2023/02/03 10:34:16;;;;;;;0.38;0.35;;;6.30;99.90;;;;;;5129264;27;20231;-67
2023/02/03 10:36:54;;;;;;;0.30;0.20;;;6.30;99.90;;;;;;5113735;27;20240;-68
2023/02/03 10:39:30;;;;;;;0.30;0.20;;;6.30;99.90;;;;;;5123919;27;20209;-66
2023/02/03 10:41:58;;;;;;;0.45;0.40;;;6.20;99.90;;;;;;5125366;27;20221;-68
2023/02/03 10:44:31;;;;;;;0.50;0.38;;;6.30;99.90;;;;;;5123719;27;20197;-68
2023/02/03 10:46:59;;;;;;;0.30;0.20;;;6.20;99.90;;;;;;5126564;27;20225;-68
2023/02/03 10:49:28;;;;;;;1.75;0.73;;;6.80;99.90;;;;;;5122315;27;20194;-67
2023/02/03 10:52:01;;;;;;;0.30;0.30;;;7.40;99.90;;;;;;5130194;27;20324;-68
2023/02/03 10:54:31;;;;;;;0.30;0.20;;;6.50;99.90;;;;;;5117886;27;20189;-66
2023/02/03 10:57:03;;;;;;;1.35;1.35;;;6.60;99.90;;;;;;5114179;27;20558;-67
2023/02/03 10:59:33;;;;;;;0.30;0.30;;;6.70;99.90;;;;;;5117162;27;20194;-66
2023/02/03 11:02:08;;;;;;;0.30;0.20;;;6.80;99.90;;;;;;5124264;27;20220;-68
2023/02/03 11:04:35;;;;;;;0.45;0.40;;;;;;;;;;5120185;27;20197;-67
2023/02/03 11:07:04;;;;;;;1.33;1.23;;;6.80;99.90;;;;;;5130095;27;20235;-67
2023/02/03 11:09:34;;;;;;;0.40;0.40;;;7.00;99.90;;;;;;5129292;27;20221;-67
2023/02/03 11:12:12;;;;;;;0.50;0.40;;;6.90;99.90;;;;;;5130478;27;20225;-67
2023/02/03 11:14:42;;;;;;;0.75;0.60;;;6.90;99.90;;;;;;5109987;28;20208;-66
2023/02/03 11:17:16;;;;;;;0.50;0.43;;;6.90;99.90;;;;;;5109737;28;20241;-68
2023/02/03 11:19:45;;;;;;;1.00;0.70;;;6.80;99.90;;;;;;5109431;28;20201;-66
2023/02/03 11:22:13;;;;;;;1.50;0.90;;;6.80;99.90;;;;;;5119852;27;20246;-67
2023/02/03 11:24:42;;;;;;;0.30;0.20;;;6.70;99.90;;;;;;5129795;27;20204;-66
2023/02/03 11:27:13;;;;;;;1.58;0.50;;;6.70;99.90;;;;;;5109351;28;20244;-69
2023/02/03 11:29:43;;;;;;;0.75;0.60;;;6.70;99.90;;;;;;5128176;27;20716;-66
2023/02/03 11:32:18;;;;;;;0.40;0.40;;;6.70;99.90;;;;;;5129509;27;20597;-67
2023/02/03 11:34:53;;;;;;;0.73;0.50;;;6.50;99.90;;;;;;5129596;27;20205;-66
2023/02/03 11:37:28;;;;;;;4.10;1.23;;;6.50;99.90;;;;;;5123881;27;20225;-67
2023/02/03 11:39:56;;;;;;;0.57;0.57;;;6.60;99.90;;;;;;5108347;27;20200;-66
2023/02/03 11:42:24;;;;;;;0.40;0.20;;;6.60;99.90;;;;;;5127103;27;20651;-66
2023/02/03 11:44:51;;;;;;;0.30;0.30;;;6.70;99.90;;;;;;5128977;27;20200;-67
2023/02/03 11:47:20;;;;;;;0.40;0.30;;;6.80;99.90;;;;;;5128709;27;20229;-66
2023/02/03 11:50:07;;;;;;;0.40;0.30;;;6.80;99.90;;;;;;5128150;27;20316;-66
2023/02/03 11:52:48;;;;;;;0.65;0.65;;;6.70;99.90;;;;;;5109146;28;20434;-67
2023/02/03 11:55:35;;;;;;;1.08;0.80;;;6.80;99.90;;;;;;5111921;27;20659;-66
2023/02/03 11:58:23;;;;;;;0.30;0.30;;;6.80;99.90;;;;;;5116040;27;20185;-66
2023/02/03 12:00:57;;;;;;;0.50;0.50;;;6.70;99.90;;;;;;5128929;27;20225;-66
2023/02/03 12:03:55;;;;;;;0.45;0.40;;;6.70;99.90;;;;;;5122525;27;20567;-66
2023/02/03 12:06:34;;;;;;;0.35;0.20;;;6.70;99.90;;;;;;5127042;27;20304;-66
2023/02/03 12:09:16;;;;;;;0.30;0.15;;;6.80;99.90;;;;;;5118890;27;20201;-66
2023/02/03 12:12:00;;;;;;;0.30;0.30;;;6.90;99.90;;;;;;5108585;28;20224;-68
2023/02/03 12:14:37;;;;;;;0.30;0.20;;;9.40;99.90;;;;;;5114935;27;20209;-66
2023/02/03 12:17:25;;;;;;;0.30;0.20;;;6.90;99.90;;;;;;5120447;27;20218;-66
2023/02/03 12:20:11;;;;;;;0.43;0.30;;;6.90;99.90;;;;;;5125745;27;20207;-66
2023/02/03 12:22:49;;;;;;;0.50;0.50;;;6.80;99.90;;;;;;5128132;27;20197;-67
2023/02/03 12:25:31;;;;;;;0.30;0.20;;;6.90;99.90;;;;;;5108319;28;20289;-66
2023/02/03 12:28:08;;;;;;;0.30;0.30;;;6.80;99.90;;;;;;5121531;27;20198;-67
2023/02/03 12:30:40;;;;;;;0.30;0.20;;;6.90;99.90;;;;;;5115686;27;20216;-66
2023/02/03 12:33:17;;;;;;;0.30;0.20;;;6.90;99.90;;;;;;5115605;27;20217;-69
2023/02/03 12:35:51;;;;;;;0.80;0.70;;;7.00;99.90;;;;;;5118845;27;20653;-67
2023/02/03 12:38:29;;;;;;;0.30;0.30;;;7.00;99.90;;;;;;5121037;27;20629;-67
2023/02/03 12:40:59;;;;;;;0.30;0.20;;;7.00;99.90;;;;;;5110283;27;20225;-67
2023/02/03 12:43:36;;;;;;;0.40;0.35;;;7.00;99.90;;;;;;5112781;27;20198;-68
2023/02/03 12:46:07;;;;;;;0.30;0.10;;;7.00;99.90;;;;;;5117855;27;20228;-66
2023/02/03 12:48:42;;;;;;;0.40;0.30;;;7.00;99.90;;;;;;5110915;27;20923;-66
2023/02/03 12:51:15;;;;;;;0.30;0.20;;;7.00;99.90;;;;;;5124584;27;20215;-66
2023/02/03 12:53:48;;;;;;;0.38;0.30;;;7.00;99.90;;;;;;5117675;27;20221;-67
2023/02/03 12:56:20;;;;;;;0.30;0.20;;;7.00;99.90;;;;;;5116261;27;20766;-66
2023/02/03 12:58:50;;;;;;;0.30;0.20;;;6.90;99.90;;;;;;5107739;27;20626;-66
2023/02/03 13:01:22;;;;;;;0.30;0.20;;;6.90;99.90;;;;;;5127837;27;20219;-66
2023/02/03 13:03:55;;;;;;;0.40;0.22;;;6.90;99.90;;;;;;5117507;27;20661;-66
2023/02/03 13:06:30;;;;;;;0.45;0.43;;;7.00;99.90;;;;;;5122921;27;20225;-67
2023/02/03 13:09:02;;;;;;;0.80;0.47;;;6.90;99.90;;;;;;5123883;27;20220;-66
2023/02/03 13:11:33;;;;;;;0.40;0.30;;;6.90;99.90;;;;;;5114925;27;20226;-66
2023/02/03 13:14:05;;;;;;;0.30;0.20;;;6.90;99.90;;;;;;5108362;28;20227;-66
2023/02/03 13:16:36;;;;;;;0.30;0.20;;;6.90;99.90;;;;;;5108833;27;20229;-66
2023/02/03 13:19:10;;;;;;;0.30;0.20;;;6.90;99.90;;;;;;5107395;27;20193;-66
2023/02/03 13:21:38;;;;;;;0.30;0.20;;;7.00;99.90;;;;;;5110907;27;20219;-66
2023/02/03 13:24:06;;;;;;;0.30;0.30;;;7.00;99.90;;;;;;5121183;27;20190;-66
2023/02/03 13:26:49;;;;;;;0.30;0.20;;;7.10;99.90;;;;;;5113721;27;20254;-66
2023/02/03 13:29:32;;;;;;;0.50;0.35;;;7.00;99.90;;;;;;5107410;28;20563;-67
2023/02/03 13:32:11;;;;;;;0.30;0.20;;;7.00;99.90;;;;;;5125143;27;20229;-66
2023/02/03 13:34:56;;;;;;;0.40;0.30;;;7.10;99.90;;;;;;5128273;27;20239;-66
2023/02/03 13:37:48;;;;;;;0.40;0.30;;;7.10;99.90;;;;;;5125660;27;20231;-66
2023/02/03 13:40:28;;;;;;;0.30;0.20;;;7.00;99.90;;;;;;5124880;27;20194;-67